sensor_id;sensor_type;location;lat;lon;timestamp;noise_LAeq;noise_LA_min;noise_LA_max;noise_LA01;noise_LA95
45964;Laerm;31671;48.092;11.842;2024-01-11T00:00:50;29.29;27.82;30.75;;
45964;Laerm;31671;48.092;11.842;2024-01-11T00:03:16;29.30;27.95;30.66;;
45964;Laerm;31671;48.092;11.842;2024-01-11T00:05:41;29.24;27.55;30.64;;
45964;Laerm;31671;48.092;11.842;2024-01-11T00:08:07;29.29;28.03;30.58;;
45964;Laerm;31671;48.092;11.842;2024-01-11T00:10:33;29.22;27.97;30.44;;
45964;Laerm;31671;48.092;11.842;2024-01-11T00:12:58;29.22;27.93;30.91;;
45964;Laerm;31671;48.092;11.842;2024-01-11T00:15:24;29.28;27.87;30.47;;
45964;Laerm;31671;48.092;11.842;2024-01-11T00:17:50;29.17;27.91;30.48;;
45964;Laerm;31671;48.092;11.842;2024-01-11T00:20:15;29.17;27.77;30.26;;
45964;Laerm;31671;48.092;11.842;2024-01-11T00:22:41;29.27;27.75;30.63;;
45964;Laerm;31671;48.092;11.842;2024-01-11T00:25:07;29.28;27.87;30.62;;
45964;Laerm;31671;48.092;11.842;2024-01-11T00:27:33;29.23;27.91;30.38;;
45964;Laerm;31671;48.092;11.842;2024-01-11T00:29:58;29.33;27.89;30.51;;
45964;Laerm;31671;48.092;11.842;2024-01-11T00:32:24;29.30;27.97;31.13;;
45964;Laerm;31671;48.092;11.842;2024-01-11T00:34:50;29.18;27.84;30.51;;
45964;Laerm;31671;48.092;11.842;2024-01-11T00:37:16;29.32;28.02;30.55;;
45964;Laerm;31671;48.092;11.842;2024-01-11T00:39:41;29.27;27.94;30.62;;
45964;Laerm;31671;48.092;11.842;2024-01-11T00:42:07;29.28;27.96;30.49;;
45964;Laerm;31671;48.092;11.842;2024-01-11T00:44:33;29.30;27.98;30.61;;
45964;Laerm;31671;48.092;11.842;2024-01-11T00:46:58;29.28;28.13;30.43;;
45964;Laerm;31671;48.092;11.842;2024-01-11T00:49:24;29.33;28.04;30.63;;
45964;Laerm;31671;48.092;11.842;2024-01-11T00:51:50;29.39;28.13;30.58;;
45964;Laerm;31671;48.092;11.842;2024-01-11T00:54:15;29.30;27.96;30.47;;
45964;Laerm;31671;48.092;11.842;2024-01-11T00:56:41;29.36;27.96;30.55;;
45964;Laerm;31671;48.092;11.842;2024-01-11T00:59:07;29.39;28.02;32.47;;
45964;Laerm;31671;48.092;11.842;2024-01-11T01:01:32;29.32;27.87;34.09;;
45964;Laerm;31671;48.092;11.842;2024-01-11T01:03:58;29.29;27.85;30.45;;
45964;Laerm;31671;48.092;11.842;2024-01-11T01:06:24;29.29;28.04;30.62;;
45964;Laerm;31671;48.092;11.842;2024-01-11T01:08:50;29.34;27.93;35.75;;
45964;Laerm;31671;48.092;11.842;2024-01-11T01:11:15;29.37;28.06;30.63;;
45964;Laerm;31671;48.092;11.842;2024-01-11T01:13:41;29.36;27.76;30.59;;
45964;Laerm;31671;48.092;11.842;2024-01-11T01:16:07;29.34;27.98;30.75;;
45964;Laerm;31671;48.092;11.842;2024-01-11T01:18:32;29.38;28.10;30.62;;
45964;Laerm;31671;48.092;11.842;2024-01-11T01:20:58;29.51;28.06;38.22;;
45964;Laerm;31671;48.092;11.842;2024-01-11T01:23:24;29.38;28.07;30.59;;
45964;Laerm;31671;48.092;11.842;2024-01-11T01:25:52;29.32;28.08;30.70;;
45964;Laerm;31671;48.092;11.842;2024-01-11T01:28:18;29.33;28.04;30.62;;
45964;Laerm;31671;48.092;11.842;2024-01-11T01:30:44;29.26;27.96;30.45;;
45964;Laerm;31671;48.092;11.842;2024-01-11T01:33:09;29.27;27.88;30.42;;
45964;Laerm;31671;48.092;11.842;2024-01-11T01:35:35;29.33;28.19;30.54;;
45964;Laerm;31671;48.092;11.842;2024-01-11T01:38:01;29.36;27.85;30.51;;
45964;Laerm;31671;48.092;11.842;2024-01-11T01:40:26;29.23;28.00;30.39;;
45964;Laerm;31671;48.092;11.842;2024-01-11T01:42:57;29.15;27.92;30.48;;
45964;Laerm;31671;48.092;11.842;2024-01-11T01:45:23;29.26;27.83;30.67;;
45964;Laerm;31671;48.092;11.842;2024-01-11T01:47:48;29.22;28.07;30.59;;
45964;Laerm;31671;48.092;11.842;2024-01-11T01:50:14;29.30;27.86;31.95;;
45964;Laerm;31671;48.092;11.842;2024-01-11T01:52:40;29.26;28.04;30.65;;
45964;Laerm;31671;48.092;11.842;2024-01-11T01:55:07;29.25;27.89;31.14;;
45964;Laerm;31671;48.092;11.842;2024-01-11T01:57:35;29.30;28.01;30.78;;
45964;Laerm;31671;48.092;11.842;2024-01-11T02:00:01;29.36;27.97;31.23;;
45964;Laerm;31671;48.092;11.842;2024-01-11T02:02:27;29.31;28.17;30.83;;
45964;Laerm;31671;48.092;11.842;2024-01-11T02:04:54;29.23;27.85;30.58;;
45964;Laerm;31671;48.092;11.842;2024-01-11T02:07:20;29.27;27.86;30.60;;
45964;Laerm;31671;48.092;11.842;2024-01-11T02:09:45;29.31;27.90;34.02;;
45964;Laerm;31671;48.092;11.842;2024-01-11T02:12:12;29.35;27.84;30.63;;
45964;Laerm;31671;48.092;11.842;2024-01-11T02:14:37;29.32;28.10;30.54;;
45964;Laerm;31671;48.092;11.842;2024-01-11T02:17:03;29.30;27.98;30.58;;
45964;Laerm;31671;48.092;11.842;2024-01-11T02:19:29;29.31;27.98;30.49;;
45964;Laerm;31671;48.092;11.842;2024-01-11T02:21:54;29.37;27.81;30.80;;
45964;Laerm;31671;48.092;11.842;2024-01-11T02:24:23;29.29;27.91;30.36;;
45964;Laerm;31671;48.092;11.842;2024-01-11T02:26:58;29.37;27.92;30.52;;
45964;Laerm;31671;48.092;11.842;2024-01-11T02:29:24;29.39;27.98;30.72;;
45964;Laerm;31671;48.092;11.842;2024-01-11T02:31:50;29.44;28.08;30.54;;
45964;Laerm;31671;48.092;11.842;2024-01-11T02:34:15;29.36;28.16;30.64;;
45964;Laerm;31671;48.092;11.842;2024-01-11T02:36:41;29.38;28.18;30.71;;
45964;Laerm;31671;48.092;11.842;2024-01-11T02:39:07;29.42;28.01;30.86;;
45964;Laerm;31671;48.092;11.842;2024-01-11T02:41:33;29.37;28.14;30.67;;
45964;Laerm;31671;48.092;11.842;2024-01-11T02:44:00;29.44;27.90;34.30;;
45964;Laerm;31671;48.092;11.842;2024-01-11T02:46:26;29.56;28.18;33.73;;
45964;Laerm;31671;48.092;11.842;2024-01-11T02:48:51;29.56;28.23;37.97;;
45964;Laerm;31671;48.092;11.842;2024-01-11T02:51:17;29.98;27.72;40.10;;
45964;Laerm;31671;48.092;11.842;2024-01-11T02:53:43;29.38;28.04;30.64;;
45964;Laerm;31671;48.092;11.842;2024-01-11T02:56:08;29.39;28.16;31.23;;
45964;Laerm;31671;48.092;11.842;2024-01-11T02:58:34;29.38;28.19;32.71;;
45964;Laerm;31671;48.092;11.842;2024-01-11T03:01:00;29.43;28.11;34.34;;
45964;Laerm;31671;48.092;11.842;2024-01-11T03:03:25;29.73;28.00;41.57;;
45964;Laerm;31671;48.092;11.842;2024-01-11T03:05:51;29.36;28.03;30.69;;
45964;Laerm;31671;48.092;11.842;2024-01-11T03:08:17;30.05;28.04;45.11;;
45964;Laerm;31671;48.092;11.842;2024-01-11T03:10:42;29.31;27.88;36.51;;
45964;Laerm;31671;48.092;11.842;2024-01-11T03:13:08;29.39;28.07;42.19;;
45964;Laerm;31671;48.092;11.842;2024-01-11T03:15:34;29.23;27.98;33.93;;
45964;Laerm;31671;48.092;11.842;2024-01-11T03:17:59;29.25;28.02;30.36;;
45964;Laerm;31671;48.092;11.842;2024-01-11T03:20:25;29.30;27.79;34.71;;
45964;Laerm;31671;48.092;11.842;2024-01-11T03:22:51;29.26;27.95;36.26;;
45964;Laerm;31671;48.092;11.842;2024-01-11T03:25:17;29.26;27.93;36.29;;
45964;Laerm;31671;48.092;11.842;2024-01-11T03:27:42;29.24;27.75;31.06;;
45964;Laerm;31671;48.092;11.842;2024-01-11T03:30:08;29.18;27.76;30.47;;
45964;Laerm;31671;48.092;11.842;2024-01-11T03:32:34;29.43;27.98;43.66;;
45964;Laerm;31671;48.092;11.842;2024-01-11T03:34:59;29.19;27.88;34.23;;
45964;Laerm;31671;48.092;11.842;2024-01-11T03:37:25;29.24;28.02;35.26;;
45964;Laerm;31671;48.092;11.842;2024-01-11T03:39:51;29.40;28.06;34.66;;
45964;Laerm;31671;48.092;11.842;2024-01-11T03:42:17;29.57;28.06;37.40;;
45964;Laerm;31671;48.092;11.842;2024-01-11T03:44:42;29.26;27.93;33.30;;
45964;Laerm;31671;48.092;11.842;2024-01-11T03:47:08;29.22;27.89;30.38;;
45964;Laerm;31671;48.092;11.842;2024-01-11T03:49:34;29.52;28.12;40.41;;
45964;Laerm;31671;48.092;11.842;2024-01-11T03:51:59;29.21;27.51;36.91;;
45964;Laerm;31671;48.092;11.842;2024-01-11T03:54:25;29.28;27.99;30.54;;
45964;Laerm;31671;48.092;11.842;2024-01-11T03:56:51;29.33;28.02;32.25;;
45964;Laerm;31671;48.092;11.842;2024-01-11T03:59:16;29.32;27.70;31.85;;
45964;Laerm;31671;48.092;11.842;2024-01-11T04:01:42;29.36;28.01;34.67;;
45964;Laerm;31671;48.092;11.842;2024-01-11T04:04:08;29.33;27.97;32.69;;
45964;Laerm;31671;48.092;11.842;2024-01-11T04:06:34;29.34;27.96;32.03;;
45964;Laerm;31671;48.092;11.842;2024-01-11T04:09:00;29.33;28.12;30.89;;
45964;Laerm;31671;48.092;11.842;2024-01-11T04:11:28;29.31;27.98;30.57;;
45964;Laerm;31671;48.092;11.842;2024-01-11T04:13:54;29.39;27.99;34.29;;
45964;Laerm;31671;48.092;11.842;2024-01-11T04:16:20;29.29;27.89;30.55;;
45964;Laerm;31671;48.092;11.842;2024-01-11T04:18:46;29.36;28.01;30.71;;
45964;Laerm;31671;48.092;11.842;2024-01-11T04:21:21;29.29;27.67;30.60;;
45964;Laerm;31671;48.092;11.842;2024-01-11T04:23:47;29.25;27.96;30.49;;
45964;Laerm;31671;48.092;11.842;2024-01-11T04:26:12;29.30;28.00;30.76;;
45964;Laerm;31671;48.092;11.842;2024-01-11T04:28:38;29.30;28.07;30.69;;
45964;Laerm;31671;48.092;11.842;2024-01-11T04:31:04;29.29;27.99;30.63;;
45964;Laerm;31671;48.092;11.842;2024-01-11T04:33:29;29.27;27.94;30.44;;
45964;Laerm;31671;48.092;11.842;2024-01-11T04:35:55;29.39;28.03;30.73;;
45964;Laerm;31671;48.092;11.842;2024-01-11T04:38:21;29.34;27.90;30.54;;
45964;Laerm;31671;48.092;11.842;2024-01-11T04:40:46;29.33;28.04;30.58;;
45964;Laerm;31671;48.092;11.842;2024-01-11T04:43:12;29.34;27.86;30.71;;
45964;Laerm;31671;48.092;11.842;2024-01-11T04:45:38;29.30;27.89;30.88;;
45964;Laerm;31671;48.092;11.842;2024-01-11T04:48:03;29.33;27.91;30.70;;
45964;Laerm;31671;48.092;11.842;2024-01-11T04:50:29;29.31;27.89;30.87;;
45964;Laerm;31671;48.092;11.842;2024-01-11T04:52:55;29.45;28.17;30.73;;
45964;Laerm;31671;48.092;11.842;2024-01-11T04:55:21;29.35;27.95;30.58;;
45964;Laerm;31671;48.092;11.842;2024-01-11T04:57:46;29.31;27.99;30.52;;
45964;Laerm;31671;48.092;11.842;2024-01-11T05:00:12;29.41;27.75;30.78;;
45964;Laerm;31671;48.092;11.842;2024-01-11T05:02:38;29.39;27.97;30.74;;
45964;Laerm;31671;48.092;11.842;2024-01-11T05:05:04;29.44;28.10;31.45;;
45964;Laerm;31671;48.092;11.842;2024-01-11T05:07:29;29.31;27.90;30.67;;
45964;Laerm;31671;48.092;11.842;2024-01-11T05:09:55;29.36;28.12;30.59;;
45964;Laerm;31671;48.092;11.842;2024-01-11T05:12:21;29.31;28.02;30.52;;
45964;Laerm;31671;48.092;11.842;2024-01-11T05:14:46;29.32;28.00;30.78;;
45964;Laerm;31671;48.092;11.842;2024-01-11T05:17:12;29.36;28.07;30.86;;
45964;Laerm;31671;48.092;11.842;2024-01-11T05:19:38;29.32;28.10;30.49;;
45964;Laerm;31671;48.092;11.842;2024-01-11T05:22:04;29.36;28.27;30.48;;
45964;Laerm;31671;48.092;11.842;2024-01-11T05:24:29;29.35;27.80;30.79;;
45964;Laerm;31671;48.092;11.842;2024-01-11T05:26:55;29.36;28.16;30.69;;
45964;Laerm;31671;48.092;11.842;2024-01-11T05:29:21;29.25;28.00;30.40;;
45964;Laerm;31671;48.092;11.842;2024-01-11T05:31:46;29.30;27.91;30.41;;
45964;Laerm;31671;48.092;11.842;2024-01-11T05:34:12;29.37;27.81;30.71;;
45964;Laerm;31671;48.092;11.842;2024-01-11T05:36:38;29.23;27.90;30.47;;
45964;Laerm;31671;48.092;11.842;2024-01-11T05:39:03;29.35;28.11;30.63;;
45964;Laerm;31671;48.092;11.842;2024-01-11T05:41:29;29.25;27.68;30.45;;
45964;Laerm;31671;48.092;11.842;2024-01-11T05:43:55;29.33;27.87;31.59;;
45964;Laerm;31671;48.092;11.842;2024-01-11T05:46:20;29.57;28.01;37.75;;
45964;Laerm;31671;48.092;11.842;2024-01-11T05:48:46;29.30;27.62;30.57;;
45964;Laerm;31671;48.092;11.842;2024-01-11T05:51:12;29.32;27.90;30.60;;
45964;Laerm;31671;48.092;11.842;2024-01-11T05:53:37;29.38;27.93;30.49;;
45964;Laerm;31671;48.092;11.842;2024-01-11T05:56:12;29.35;27.89;30.56;;
45964;Laerm;31671;48.092;11.842;2024-01-11T05:58:39;29.32;28.05;30.60;;
45964;Laerm;31671;48.092;11.842;2024-01-11T06:01:04;29.30;27.93;30.76;;
45964;Laerm;31671;48.092;11.842;2024-01-11T06:03:30;29.40;28.25;35.76;;
45964;Laerm;31671;48.092;11.842;2024-01-11T06:05:56;29.37;27.77;30.58;;
45964;Laerm;31671;48.092;11.842;2024-01-11T06:08:22;29.40;28.13;30.79;;
45964;Laerm;31671;48.092;11.842;2024-01-11T06:10:47;29.40;27.77;34.60;;
45964;Laerm;31671;48.092;11.842;2024-01-11T06:13:13;29.28;27.88;30.42;;
45964;Laerm;31671;48.092;11.842;2024-01-11T06:15:39;29.37;27.87;30.72;;
45964;Laerm;31671;48.092;11.842;2024-01-11T06:18:04;29.35;27.93;31.39;;
45964;Laerm;31671;48.092;11.842;2024-01-11T06:20:30;29.53;28.19;32.37;;
45964;Laerm;31671;48.092;11.842;2024-01-11T06:22:56;29.33;27.72;30.65;;
45964;Laerm;31671;48.092;11.842;2024-01-11T06:25:21;29.32;27.96;30.87;;
45964;Laerm;31671;48.092;11.842;2024-01-11T06:27:47;29.41;27.73;30.79;;
45964;Laerm;31671;48.092;11.842;2024-01-11T06:30:13;29.31;27.98;30.48;;
45964;Laerm;31671;48.092;11.842;2024-01-11T06:32:38;29.28;27.99;30.51;;
45964;Laerm;31671;48.092;11.842;2024-01-11T06:35:04;29.37;28.09;30.60;;
45964;Laerm;31671;48.092;11.842;2024-01-11T06:37:30;29.31;28.05;30.51;;
45964;Laerm;31671;48.092;11.842;2024-01-11T06:39:56;29.45;27.82;30.72;;
45964;Laerm;31671;48.092;11.842;2024-01-11T06:42:22;29.39;28.16;30.64;;
45964;Laerm;31671;48.092;11.842;2024-01-11T06:44:47;29.51;28.31;30.80;;
45964;Laerm;31671;48.092;11.842;2024-01-11T06:47:13;29.50;28.17;30.96;;
45964;Laerm;31671;48.092;11.842;2024-01-11T06:49:39;29.65;28.30;32.86;;
45964;Laerm;31671;48.092;11.842;2024-01-11T06:52:04;29.44;28.21;30.63;;
45964;Laerm;31671;48.092;11.842;2024-01-11T06:54:30;29.47;28.08;30.86;;
45964;Laerm;31671;48.092;11.842;2024-01-11T06:56:56;29.44;28.10;31.28;;
45964;Laerm;31671;48.092;11.842;2024-01-11T06:59:21;29.36;28.14;30.59;;
45964;Laerm;31671;48.092;11.842;2024-01-11T07:01:47;29.39;28.08;30.66;;
45964;Laerm;31671;48.092;11.842;2024-01-11T07:04:13;29.58;28.37;32.35;;
45964;Laerm;31671;48.092;11.842;2024-01-11T07:06:38;29.48;28.14;30.93;;
45964;Laerm;31671;48.092;11.842;2024-01-11T07:09:04;29.47;28.36;31.80;;
45964;Laerm;31671;48.092;11.842;2024-01-11T07:11:30;29.51;28.01;32.77;;
45964;Laerm;31671;48.092;11.842;2024-01-11T07:13:55;29.52;28.09;32.97;;
45964;Laerm;31671;48.092;11.842;2024-01-11T07:16:21;29.49;28.16;32.04;;
45964;Laerm;31671;48.092;11.842;2024-01-11T07:18:47;29.45;27.87;31.18;;
45964;Laerm;31671;48.092;11.842;2024-01-11T07:21:24;29.53;28.05;33.32;;
45964;Laerm;31671;48.092;11.842;2024-01-11T07:23:49;29.54;28.04;36.78;;
45964;Laerm;31671;48.092;11.842;2024-01-11T07:26:15;29.54;27.75;32.41;;
45964;Laerm;31671;48.092;11.842;2024-01-11T07:28:41;29.39;28.13;32.02;;
45964;Laerm;31671;48.092;11.842;2024-01-11T07:31:06;29.54;28.03;34.17;;
45964;Laerm;31671;48.092;11.842;2024-01-11T07:33:32;30.54;28.02;50.41;;
45964;Laerm;31671;48.092;11.842;2024-01-11T07:35:58;29.77;28.18;32.71;;
45964;Laerm;31671;48.092;11.842;2024-01-11T07:38:23;29.46;28.04;32.15;;
45964;Laerm;31671;48.092;11.842;2024-01-11T07:40:49;29.47;28.27;31.08;;
45964;Laerm;31671;48.092;11.842;2024-01-11T07:43:15;29.53;28.18;31.79;;
45964;Laerm;31671;48.092;11.842;2024-01-11T07:45:40;29.51;28.26;30.96;;
45964;Laerm;31671;48.092;11.842;2024-01-11T07:48:06;29.57;28.16;32.51;;
45964;Laerm;31671;48.092;11.842;2024-01-11T07:50:32;29.69;28.27;35.45;;
45964;Laerm;31671;48.092;11.842;2024-01-11T07:52:57;29.58;28.26;30.85;;
45964;Laerm;31671;48.092;11.842;2024-01-11T07:55:23;29.53;28.41;31.31;;
45964;Laerm;31671;48.092;11.842;2024-01-11T07:57:49;29.52;28.02;30.83;;
45964;Laerm;31671;48.092;11.842;2024-01-11T08:00:15;29.64;28.38;33.87;;
45964;Laerm;31671;48.092;11.842;2024-01-11T08:02:41;30.48;28.25;43.17;;
45964;Laerm;31671;48.092;11.842;2024-01-11T08:05:06;29.88;28.24;36.82;;
45964;Laerm;31671;48.092;11.842;2024-01-11T08:07:32;29.67;28.31;34.44;;
45964;Laerm;31671;48.092;11.842;2024-01-11T08:09:58;29.69;28.11;31.02;;
45964;Laerm;31671;48.092;11.842;2024-01-11T08:12:24;29.73;28.38;37.35;;
45964;Laerm;31671;48.092;11.842;2024-01-11T08:14:49;29.85;28.23;37.67;;
45964;Laerm;31671;48.092;11.842;2024-01-11T08:17:15;29.74;28.49;34.58;;
45964;Laerm;31671;48.092;11.842;2024-01-11T08:19:41;29.67;28.24;31.11;;
45964;Laerm;31671;48.092;11.842;2024-01-11T08:22:06;29.71;28.34;31.20;;
45964;Laerm;31671;48.092;11.842;2024-01-11T08:24:32;29.73;28.22;32.12;;
45964;Laerm;31671;48.092;11.842;2024-01-11T08:26:58;29.62;28.37;30.98;;
45964;Laerm;31671;48.092;11.842;2024-01-11T08:29:23;29.65;28.34;30.83;;
45964;Laerm;31671;48.092;11.842;2024-01-11T08:31:50;29.64;28.36;31.37;;
45964;Laerm;31671;48.092;11.842;2024-01-11T08:34:15;29.59;28.36;32.39;;
45964;Laerm;31671;48.092;11.842;2024-01-11T08:36:41;29.66;28.21;30.91;;
45964;Laerm;31671;48.092;11.842;2024-01-11T08:39:07;29.61;28.32;30.99;;
45964;Laerm;31671;48.092;11.842;2024-01-11T08:41:33;29.62;28.31;30.75;;
45964;Laerm;31671;48.092;11.842;2024-01-11T08:43:59;29.75;28.33;31.64;;
45964;Laerm;31671;48.092;11.842;2024-01-11T08:46:25;29.60;28.39;30.97;;
45964;Laerm;31671;48.092;11.842;2024-01-11T08:48:51;29.67;28.37;30.97;;
45964;Laerm;31671;48.092;11.842;2024-01-11T08:51:17;29.68;28.22;31.09;;
45964;Laerm;31671;48.092;11.842;2024-01-11T08:53:42;29.61;28.42;31.00;;
45964;Laerm;31671;48.092;11.842;2024-01-11T08:56:08;29.67;28.48;31.02;;
45964;Laerm;31671;48.092;11.842;2024-01-11T08:58:34;29.63;28.48;30.84;;
45964;Laerm;31671;48.092;11.842;2024-01-11T09:00:59;29.67;28.23;30.92;;
45964;Laerm;31671;48.092;11.842;2024-01-11T09:03:25;29.62;28.26;31.66;;
45964;Laerm;31671;48.092;11.842;2024-01-11T09:05:51;29.73;28.40;30.97;;
45964;Laerm;31671;48.092;11.842;2024-01-11T09:08:16;29.66;28.33;30.81;;
45964;Laerm;31671;48.092;11.842;2024-01-11T09:10:42;29.68;28.36;31.32;;
45964;Laerm;31671;48.092;11.842;2024-01-11T09:13:08;29.70;28.44;30.99;;
45964;Laerm;31671;48.092;11.842;2024-01-11T09:15:33;29.68;28.38;31.11;;
45964;Laerm;31671;48.092;11.842;2024-01-11T09:17:59;29.68;28.48;30.91;;
45964;Laerm;31671;48.092;11.842;2024-01-11T09:20:25;29.68;28.41;31.22;;
45964;Laerm;31671;48.092;11.842;2024-01-11T09:22:50;29.69;28.44;31.12;;
45964;Laerm;31671;48.092;11.842;2024-01-11T09:25:16;29.62;28.11;33.49;;
45964;Laerm;31671;48.092;11.842;2024-01-11T09:27:42;29.68;28.26;30.85;;
45964;Laerm;31671;48.092;11.842;2024-01-11T09:30:07;29.67;28.36;32.13;;
45964;Laerm;31671;48.092;11.842;2024-01-11T09:32:33;29.64;28.39;32.05;;
45964;Laerm;31671;48.092;11.842;2024-01-11T09:34:59;29.59;28.32;31.06;;
45964;Laerm;31671;48.092;11.842;2024-01-11T09:37:25;29.74;28.46;38.90;;
45964;Laerm;31671;48.092;11.842;2024-01-11T09:39:50;29.75;28.43;32.92;;
45964;Laerm;31671;48.092;11.842;2024-01-11T09:42:16;29.67;28.51;31.38;;
45964;Laerm;31671;48.092;11.842;2024-01-11T09:44:43;29.66;28.12;30.85;;
45964;Laerm;31671;48.092;11.842;2024-01-11T09:47:10;29.61;28.31;30.83;;
45964;Laerm;31671;48.092;11.842;2024-01-11T09:49:36;29.61;28.29;30.82;;
45964;Laerm;31671;48.092;11.842;2024-01-11T09:52:01;29.63;28.16;30.91;;
45964;Laerm;31671;48.092;11.842;2024-01-11T09:54:27;29.63;28.22;30.91;;
45964;Laerm;31671;48.092;11.842;2024-01-11T09:56:54;29.68;28.51;30.97;;
45964;Laerm;31671;48.092;11.842;2024-01-11T09:59:20;29.68;28.18;31.05;;
45964;Laerm;31671;48.092;11.842;2024-01-11T10:01:46;29.67;28.44;30.89;;
45964;Laerm;31671;48.092;11.842;2024-01-11T10:04:12;29.73;28.49;30.90;;
45964;Laerm;31671;48.092;11.842;2024-01-11T10:06:39;29.69;28.09;31.44;;
45964;Laerm;31671;48.092;11.842;2024-01-11T10:09:04;29.73;28.46;30.92;;
45964;Laerm;31671;48.092;11.842;2024-01-11T10:11:30;29.60;28.27;31.89;;
45964;Laerm;31671;48.092;11.842;2024-01-11T10:13:56;29.67;28.33;30.99;;
45964;Laerm;31671;48.092;11.842;2024-01-11T10:16:22;29.59;28.25;31.94;;
45964;Laerm;31671;48.092;11.842;2024-01-11T10:18:48;29.87;28.36;35.42;;
45964;Laerm;31671;48.092;11.842;2024-01-11T10:21:13;30.37;28.43;45.75;;
45964;Laerm;31671;48.092;11.842;2024-01-11T10:23:39;31.08;28.35;41.75;;
45964;Laerm;31671;48.092;11.842;2024-01-11T10:26:05;29.69;28.34;31.68;;
45964;Laerm;31671;48.092;11.842;2024-01-11T10:28:30;29.65;28.36;30.98;;
45964;Laerm;31671;48.092;11.842;2024-01-11T10:30:56;29.68;28.44;31.53;;
45964;Laerm;31671;48.092;11.842;2024-01-11T10:33:22;29.70;28.41;31.02;;
45964;Laerm;31671;48.092;11.842;2024-01-11T10:35:48;29.75;28.35;30.94;;
45964;Laerm;31671;48.092;11.842;2024-01-11T10:38:14;29.73;28.47;31.40;;
45964;Laerm;31671;48.092;11.842;2024-01-11T10:40:40;29.68;28.29;31.06;;
45964;Laerm;31671;48.092;11.842;2024-01-11T10:43:07;29.71;28.49;30.96;;
45964;Laerm;31671;48.092;11.842;2024-01-11T10:45:34;29.61;28.41;30.67;;
45964;Laerm;31671;48.092;11.842;2024-01-11T10:48:02;29.66;28.29;31.11;;
45964;Laerm;31671;48.092;11.842;2024-01-11T10:50:30;29.72;28.56;31.09;;
45964;Laerm;31671;48.092;11.842;2024-01-11T10:55:24;29.68;28.42;30.89;;
45964;Laerm;31671;48.092;11.842;2024-01-11T10:57:50;29.69;28.28;30.93;;
45964;Laerm;31671;48.092;11.842;2024-01-11T11:00:16;29.68;28.38;30.90;;
45964;Laerm;31671;48.092;11.842;2024-01-11T11:02:42;29.71;28.19;31.11;;
45964;Laerm;31671;48.092;11.842;2024-01-11T11:05:08;29.67;28.51;30.96;;
45964;Laerm;31671;48.092;11.842;2024-01-11T11:07:35;29.62;28.29;31.08;;
45964;Laerm;31671;48.092;11.842;2024-01-11T11:10:02;29.67;28.22;30.76;;
45964;Laerm;31671;48.092;11.842;2024-01-11T11:12:28;29.67;28.21;31.09;;
45964;Laerm;31671;48.092;11.842;2024-01-11T11:14:55;29.72;28.48;30.80;;
45964;Laerm;31671;48.092;11.842;2024-01-11T11:17:21;29.69;28.34;30.97;;
45964;Laerm;31671;48.092;11.842;2024-01-11T11:19:47;29.66;28.45;30.92;;
45964;Laerm;31671;48.092;11.842;2024-01-11T11:22:13;29.70;28.29;32.96;;
45964;Laerm;31671;48.092;11.842;2024-01-11T11:24:38;29.67;28.43;30.85;;
45964;Laerm;31671;48.092;11.842;2024-01-11T11:27:05;29.74;28.50;30.93;;
45964;Laerm;31671;48.092;11.842;2024-01-11T11:29:30;29.63;28.38;30.75;;
45964;Laerm;31671;48.092;11.842;2024-01-11T11:31:56;29.76;28.30;31.49;;
45964;Laerm;31671;48.092;11.842;2024-01-11T11:34:43;29.74;28.39;30.95;;
45964;Laerm;31671;48.092;11.842;2024-01-11T11:37:09;29.72;28.38;31.04;;
45964;Laerm;31671;48.092;11.842;2024-01-11T11:39:35;29.71;28.17;30.91;;
45964;Laerm;31671;48.092;11.842;2024-01-11T11:42:01;29.76;28.51;31.00;;
45964;Laerm;31671;48.092;11.842;2024-01-11T11:44:27;29.68;28.45;30.96;;
45964;Laerm;31671;48.092;11.842;2024-01-11T11:46:52;29.79;28.53;31.05;;
45964;Laerm;31671;48.092;11.842;2024-01-11T11:49:18;29.73;28.30;30.82;;
45964;Laerm;31671;48.092;11.842;2024-01-11T11:51:44;29.74;28.54;30.97;;
45964;Laerm;31671;48.092;11.842;2024-01-11T11:54:09;29.81;28.52;31.05;;
45964;Laerm;31671;48.092;11.842;2024-01-11T11:56:36;29.70;28.39;30.99;;
45964;Laerm;31671;48.092;11.842;2024-01-11T11:59:01;29.69;28.57;32.56;;
45964;Laerm;31671;48.092;11.842;2024-01-11T12:01:28;29.75;28.46;31.02;;
45964;Laerm;31671;48.092;11.842;2024-01-11T12:03:53;29.66;28.41;30.89;;
45964;Laerm;31671;48.092;11.842;2024-01-11T12:06:20;29.66;28.37;31.14;;
45964;Laerm;31671;48.092;11.842;2024-01-11T12:08:46;29.86;28.39;31.12;;
45964;Laerm;31671;48.092;11.842;2024-01-11T12:11:15;29.75;28.43;31.00;;
45964;Laerm;31671;48.092;11.842;2024-01-11T12:13:42;29.75;28.36;31.00;;
45964;Laerm;31671;48.092;11.842;2024-01-11T12:16:08;29.84;28.60;31.31;;
45964;Laerm;31671;48.092;11.842;2024-01-11T12:18:34;29.80;28.36;32.02;;
45964;Laerm;31671;48.092;11.842;2024-01-11T12:20:59;29.73;28.26;31.02;;
45964;Laerm;31671;48.092;11.842;2024-01-11T12:23:26;29.75;28.53;31.98;;
45964;Laerm;31671;48.092;11.842;2024-01-11T12:25:52;29.79;28.06;35.81;;
45964;Laerm;31671;48.092;11.842;2024-01-11T12:28:18;29.87;28.42;39.33;;
45964;Laerm;31671;48.092;11.842;2024-01-11T12:30:44;29.79;28.48;40.63;;
45964;Laerm;31671;48.092;11.842;2024-01-11T12:33:10;29.69;28.43;31.00;;
45964;Laerm;31671;48.092;11.842;2024-01-11T12:35:36;29.67;28.18;31.16;;
45964;Laerm;31671;48.092;11.842;2024-01-11T12:38:05;29.72;28.38;30.91;;
45964;Laerm;31671;48.092;11.842;2024-01-11T12:40:31;29.90;28.32;33.21;;
45964;Laerm;31671;48.092;11.842;2024-01-11T12:42:57;29.71;28.43;30.92;;
45964;Laerm;31671;48.092;11.842;2024-01-11T12:45:24;29.65;28.43;30.97;;
45964;Laerm;31671;48.092;11.842;2024-01-11T12:47:50;29.61;28.22;30.81;;
45964;Laerm;31671;48.092;11.842;2024-01-11T12:50:16;29.63;28.47;31.08;;
45964;Laerm;31671;48.092;11.842;2024-01-11T12:52:43;29.62;28.28;31.00;;
45964;Laerm;31671;48.092;11.842;2024-01-11T12:55:17;29.61;28.37;31.23;;
45964;Laerm;31671;48.092;11.842;2024-01-11T12:57:43;29.65;28.09;31.02;;
45964;Laerm;31671;48.092;11.842;2024-01-11T13:00:14;29.67;28.31;30.92;;
45964;Laerm;31671;48.092;11.842;2024-01-11T13:02:40;29.68;28.37;31.62;;
45964;Laerm;31671;48.092;11.842;2024-01-11T13:05:06;29.95;28.27;41.07;;
45964;Laerm;31671;48.092;11.842;2024-01-11T13:07:32;29.68;28.29;30.93;;
45964;Laerm;31671;48.092;11.842;2024-01-11T13:09:57;29.60;28.30;31.77;;
45964;Laerm;31671;48.092;11.842;2024-01-11T13:12:23;29.66;28.39;31.74;;
45964;Laerm;31671;48.092;11.842;2024-01-11T13:14:49;29.96;28.31;34.02;;
45964;Laerm;31671;48.092;11.842;2024-01-11T13:17:14;29.65;28.39;30.97;;
45964;Laerm;31671;48.092;11.842;2024-01-11T13:19:40;29.77;28.22;32.96;;
45964;Laerm;31671;48.092;11.842;2024-01-11T13:22:06;29.75;28.46;33.51;;
45964;Laerm;31671;48.092;11.842;2024-01-11T13:24:31;29.68;28.19;31.19;;
45964;Laerm;31671;48.092;11.842;2024-01-11T13:26:57;29.63;28.29;30.76;;